createdAt,value
2022-11-22T00:00:24.885Z,98773.83
2022-11-22T00:01:26.738Z,98774.39
2022-11-22T00:02:28.642Z,98778.78
2022-11-22T00:03:32.140Z,98773.45
2022-11-22T00:04:34.070Z,98773.34
2022-11-22T00:05:37.384Z,98773.45
2022-11-22T00:06:39.411Z,98775.28
2022-11-22T00:07:42.121Z,98779.70
2022-11-22T00:08:44.125Z,98782.20
2022-11-22T00:09:45.993Z,98776.88
2022-11-22T00:10:49.705Z,98781.98
2022-11-22T00:11:51.596Z,98785.48
2022-11-22T00:12:54.484Z,98780.16
2022-11-22T00:13:56.470Z,98780.38
2022-11-22T00:14:58.746Z,98780.77
2022-11-22T00:16:03.364Z,98781.98
2022-11-22T00:17:05.272Z,98783.88
2022-11-22T00:18:07.307Z,98783.88
2022-11-22T00:19:10.118Z,98785.70
2022-11-22T00:20:13.456Z,98790.79
2022-11-22T00:21:15.379Z,98787.75
2022-11-22T00:22:17.561Z,98789.45
2022-11-22T00:23:19.549Z,98785.92
2022-11-22T00:24:21.419Z,98787.13
2022-11-22T00:25:23.893Z,98782.53
2022-11-22T00:26:26.288Z,98787.02
2022-11-22T00:27:28.240Z,98788.64
2022-11-22T00:28:30.109Z,98785.98
2022-11-22T00:29:31.964Z,98778.64
2022-11-22T00:30:34.062Z,98786.14
2022-11-22T00:31:35.923Z,98792.12
2022-11-22T00:32:37.794Z,98797.48
2022-11-22T00:33:39.661Z,98791.61
2022-11-22T00:34:42.394Z,98795.89
2022-11-22T00:35:46.705Z,98792.66
2022-11-22T00:36:48.864Z,98795.59
2022-11-22T00:37:51.662Z,98802.77
2022-11-22T00:38:53.553Z,98750.45
2022-11-22T00:39:55.423Z,98786.83
2022-11-22T00:40:57.376Z,98797.92
2022-11-22T00:41:59.872Z,98802.97
2022-11-22T00:43:01.854Z,98809.12
2022-11-22T00:44:04.666Z,98808.72
2022-11-22T00:45:07.833Z,98807.66
2022-11-22T00:46:09.912Z,98807.45
2022-11-22T00:47:11.785Z,98807.45
2022-11-22T00:48:13.633Z,98808.12
2022-11-22T00:49:15.609Z,98810.73
2022-11-22T00:50:18.425Z,98811.73
2022-11-22T00:51:20.799Z,98811.73
2022-11-22T00:52:22.719Z,98810.78
2022-11-22T00:53:25.140Z,98809.02
2022-11-22T00:54:27.139Z,98814.02
2022-11-22T00:55:29.000Z,98818.49
2022-11-22T00:56:30.959Z,98807.45
2022-11-22T00:57:32.854Z,98802.14
2022-11-22T00:58:35.218Z,98817.44
2022-11-22T00:59:37.267Z,98808.30
2022-11-22T01:00:39.243Z,98815.58
2022-11-22T01:01:41.281Z,98816.20
2022-11-22T01:02:43.407Z,98822.55
2022-11-22T01:03:45.288Z,98814.74
2022-11-22T01:04:47.175Z,98823.92
2022-11-22T01:05:49.034Z,98820.05
2022-11-22T01:06:51.190Z,98813.90
2022-11-22T01:07:53.894Z,98810.52
2022-11-22T01:08:56.491Z,98814.10
2022-11-22T01:09:58.821Z,98803.54
2022-11-22T01:11:01.452Z,98816.45
2022-11-22T01:12:03.607Z,98765.91
2022-11-22T01:13:05.807Z,98805.96
2022-11-22T01:14:07.668Z,98812.98
2022-11-22T01:15:10.775Z,98807.08
2022-11-22T01:16:14.288Z,98793.97
2022-11-22T01:17:18.321Z,98804.27
2022-11-22T01:18:20.791Z,98791.16
2022-11-22T01:19:22.648Z,98793.55
2022-11-22T01:20:24.628Z,98799.96
2022-11-22T01:21:26.700Z,98807.03
2022-11-22T01:22:28.579Z,98798.23
2022-11-22T01:23:30.443Z,98802.36
2022-11-22T01:24:32.325Z,98804.22
2022-11-22T01:25:35.000Z,98808.95
2022-11-22T01:26:38.107Z,98813.02
2022-11-22T01:27:40.169Z,98818.08
2022-11-22T01:28:42.022Z,98818.23
2022-11-22T01:29:44.051Z,98810.32
2022-11-22T01:30:51.464Z,98821.60
2022-11-22T01:31:53.409Z,98833.16
2022-11-22T01:32:55.273Z,98828.55
2022-11-22T01:33:58.208Z,98836.34
2022-11-22T01:35:00.264Z,98834.87
2022-11-22T01:36:04.293Z,98840.13
2022-11-22T01:37:06.165Z,98841.81
2022-11-22T01:38:08.156Z,98845.18
2022-11-22T01:39:10.212Z,98851.97
2022-11-22T01:40:14.012Z,98846.70
2022-11-22T01:41:16.293Z,98840.38
2022-11-22T01:42:18.238Z,98848.53
2022-11-22T01:43:26.212Z,98845.38
2022-11-22T01:44:30.641Z,98849.85
2022-11-22T01:45:39.336Z,98844.97
2022-11-22T01:46:41.769Z,98846.83
2022-11-22T01:47:44.056Z,98840.38
2022-11-22T01:48:52.441Z,98848.78
2022-11-22T01:50:04.041Z,98856.39
2022-11-22T01:51:15.667Z,98859.69
2022-11-22T01:52:19.055Z,98856.03
2022-11-22T01:53:24.778Z,98862.29
2022-11-22T01:54:30.441Z,98862.20
2022-11-22T01:55:34.685Z,98857.19
2022-11-22T01:56:40.682Z,98864.84
2022-11-22T01:57:44.700Z,98859.09
2022-11-22T01:58:50.348Z,98869.30
2022-11-22T02:00:01.980Z,98870.38
2022-11-22T02:01:04.772Z,98862.39
2022-11-22T02:02:07.279Z,98855.38
2022-11-22T02:03:12.897Z,98868.24
2022-11-22T02:04:17.995Z,98860.86
2022-11-22T02:05:23.648Z,98864.28
2022-11-22T02:06:29.407Z,98861.23
2022-11-22T02:07:40.792Z,98876.09
2022-11-22T02:08:53.840Z,98872.23
2022-11-22T02:09:56.290Z,98872.09
2022-11-22T02:11:01.649Z,98873.30
2022-11-22T02:12:06.138Z,98857.23
2022-11-22T02:13:10.343Z,98848.64
2022-11-22T02:14:14.358Z,98848.64
2022-11-22T02:15:16.425Z,98850.17
2022-11-22T02:16:19.021Z,98853.57
2022-11-22T02:17:20.890Z,98860.11
2022-11-22T02:18:22.775Z,98855.78
2022-11-22T02:19:40.057Z,98865.08
2022-11-22T02:20:42.341Z,98863.13
2022-11-22T02:21:47.277Z,98864.05
2022-11-22T02:23:04.839Z,98864.10
2022-11-22T02:24:13.459Z,98868.66
2022-11-22T02:25:33.885Z,98871.73
2022-11-22T02:26:35.905Z,98874.19
2022-11-22T02:27:38.066Z,98875.63
2022-11-22T02:28:40.255Z,98880.50
2022-11-22T02:29:44.127Z,98886.40
2022-11-22T02:30:46.441Z,98882.81
2022-11-22T02:31:48.330Z,98885.32
2022-11-22T02:32:50.887Z,98880.44
2022-11-22T02:33:57.550Z,98897.17
2022-11-22T02:34:57.761Z,98898.98
2022-11-22T02:35:59.924Z,98903.25
2022-11-22T02:37:01.818Z,98898.75
2022-11-22T02:38:07.496Z,98898.94
2022-11-22T02:39:11.901Z,98901.44
2022-11-22T02:40:16.444Z,98904.79
2022-11-22T02:41:18.939Z,98893.26
2022-11-22T02:42:22.638Z,98886.55
2022-11-22T02:43:28.915Z,98886.34
2022-11-22T02:44:31.316Z,98886.34
2022-11-22T02:45:33.315Z,98901.06
2022-11-22T02:46:35.599Z,98902.47
2022-11-22T02:47:37.466Z,98903.04
2022-11-22T02:48:44.753Z,98899.16
2022-11-22T02:49:46.675Z,98912.16
2022-11-22T02:50:48.640Z,98908.50
2022-11-22T02:51:51.854Z,98901.67
2022-11-22T02:52:53.799Z,98906.34
2022-11-22T02:53:55.704Z,98909.61
2022-11-22T02:54:57.831Z,98902.73
2022-11-22T02:55:59.689Z,98909.83
2022-11-22T02:57:03.104Z,98912.12
2022-11-22T02:58:05.953Z,98914.10
2022-11-22T02:59:08.069Z,98924.09
2022-11-22T03:00:11.941Z,98924.77
2022-11-22T03:01:13.895Z,98926.83
2022-11-22T03:02:16.035Z,98932.48
2022-11-22T03:03:17.904Z,98931.48
2022-11-22T03:04:19.804Z,98924.64
2022-11-22T03:05:21.703Z,98930.14
2022-11-22T03:06:24.919Z,98922.50
2022-11-22T03:07:26.815Z,98923.30
2022-11-22T03:08:30.141Z,98920.35
2022-11-22T03:09:32.237Z,98926.11
2022-11-22T03:10:34.746Z,98922.17
2022-11-22T03:11:36.602Z,98926.39
2022-11-22T03:12:38.776Z,98927.98
2022-11-22T03:13:40.674Z,98928.86
2022-11-22T03:14:42.543Z,98933.05
2022-11-22T03:15:47.370Z,98930.27
2022-11-22T03:16:50.031Z,98927.67
2022-11-22T03:17:59.301Z,98935.52
2022-11-22T03:19:01.250Z,98934.50
2022-11-22T03:20:04.471Z,98936.38
2022-11-22T03:21:08.669Z,98948.30
2022-11-22T03:22:11.685Z,98945.19
2022-11-22T03:23:13.965Z,98939.95
2022-11-22T03:24:16.556Z,98937.09
2022-11-22T03:25:18.719Z,98933.52
2022-11-22T03:26:22.581Z,98933.56
2022-11-22T03:27:24.489Z,98932.52
2022-11-22T03:28:26.362Z,98945.81
2022-11-22T03:29:28.762Z,98935.30
2022-11-22T03:30:32.659Z,98944.14
2022-11-22T03:31:35.380Z,98949.25
2022-11-22T03:32:37.255Z,98954.16
2022-11-22T03:33:39.109Z,98961.74
2022-11-22T03:34:41.104Z,98964.67
2022-11-22T03:35:42.963Z,98967.27
2022-11-22T03:36:45.541Z,98952.14
2022-11-22T03:37:47.430Z,98946.82
2022-11-22T03:38:49.294Z,98942.34
2022-11-22T03:39:51.170Z,98939.87
2022-11-22T03:40:53.237Z,98941.54
2022-11-22T03:41:55.162Z,98944.81
2022-11-22T03:43:01.623Z,98947.70
2022-11-22T03:44:03.924Z,98945.81
2022-11-22T03:45:07.170Z,98948.45
2022-11-22T03:46:17.607Z,98948.45
2022-11-22T03:47:19.511Z,98954.41
2022-11-22T03:48:21.619Z,98963.79
2022-11-22T03:49:23.524Z,98956.55
2022-11-22T03:50:25.494Z,98965.60
2022-11-22T03:51:27.569Z,98963.09
2022-11-22T03:52:30.855Z,98964.77
2022-11-22T03:53:33.176Z,98966.02
2022-11-22T03:54:35.086Z,98972.89
2022-11-22T03:55:37.341Z,98966.86
2022-11-22T03:56:39.441Z,98964.09
2022-11-22T03:57:41.322Z,98969.96
2022-11-22T03:58:43.184Z,98972.59
2022-11-22T03:59:45.139Z,98971.70
2022-11-22T04:00:47.211Z,98986.17
2022-11-22T04:01:49.808Z,98984.22
2022-11-22T04:02:51.921Z,98981.53
2022-11-22T04:03:53.770Z,98981.81
2022-11-22T04:04:55.651Z,98989.16
2022-11-22T04:05:57.618Z,98991.52
2022-11-22T04:06:59.602Z,98999.31
2022-11-22T04:08:01.530Z,99000.80
2022-11-22T04:09:03.874Z,98996.37
2022-11-22T04:10:07.170Z,98996.37
2022-11-22T04:11:09.588Z,99001.61
2022-11-22T04:12:11.466Z,99015.83
2022-11-22T04:13:13.360Z,99016.14
2022-11-22T04:14:15.386Z,99014.16
2022-11-22T04:15:18.085Z,99009.83
2022-11-22T04:16:20.094Z,99000.05
2022-11-22T04:17:22.651Z,98994.61
2022-11-22T04:18:24.945Z,98999.00
2022-11-22T04:19:27.214Z,99000.48
2022-11-22T04:20:30.965Z,98993.73
2022-11-22T04:21:32.976Z,98993.73
2022-11-22T04:22:34.928Z,98997.33
2022-11-22T04:23:36.784Z,98990.25
2022-11-22T04:24:40.396Z,98997.88
2022-11-22T04:25:44.617Z,98996.33
2022-11-22T04:26:47.207Z,98991.17
2022-11-22T04:27:49.067Z,98986.73
2022-11-22T04:29:10.959Z,98987.09
2022-11-22T04:29:54.720Z,98985.05
2022-11-22T04:30:57.459Z,98985.73
2022-11-22T04:31:59.343Z,98990.36
2022-11-22T04:33:01.213Z,98988.14
2022-11-22T04:34:03.059Z,98991.53
2022-11-22T04:35:05.673Z,98986.17
2022-11-22T04:36:13.203Z,98998.88
2022-11-22T04:37:11.855Z,98997.21
2022-11-22T04:38:14.682Z,99000.60
2022-11-22T04:39:17.348Z,99007.36
2022-11-22T04:40:19.375Z,99005.67
2022-11-22T04:41:21.232Z,99007.36
2022-11-22T04:42:23.102Z,99015.11
2022-11-22T04:43:27.384Z,99010.04
2022-11-22T04:44:29.361Z,99014.77
2022-11-22T04:45:31.224Z,99020.98
2022-11-22T04:46:33.227Z,99012.24
2022-11-22T04:47:35.173Z,99017.12
2022-11-22T04:48:37.030Z,99017.84
2022-11-22T04:49:39.041Z,99011.72
2022-11-22T04:50:42.436Z,99012.72
2022-11-22T04:51:44.336Z,99011.95
2022-11-22T04:52:46.220Z,99020.75
2022-11-22T04:53:48.144Z,99022.36
2022-11-22T04:54:50.038Z,99031.91
2022-11-22T04:55:52.696Z,99023.63
2022-11-22T04:56:54.779Z,99025.98
2022-11-22T04:57:59.959Z,99021.75
2022-11-22T04:59:00.572Z,99028.62
2022-11-22T05:00:04.288Z,99030.03
2022-11-22T05:01:06.700Z,99034.51
2022-11-22T05:02:08.692Z,99041.50
2022-11-22T05:03:12.787Z,99038.27
2022-11-22T05:04:14.701Z,99037.38
2022-11-22T05:05:16.588Z,99032.87
2022-11-22T05:06:18.569Z,99040.08
2022-11-22T05:07:21.378Z,99034.29
2022-11-22T05:08:24.300Z,99036.77
2022-11-22T05:09:26.464Z,99039.22
2022-11-22T05:10:28.422Z,99050.14
2022-11-22T05:11:30.396Z,99046.44
2022-11-22T05:12:32.272Z,99043.30
2022-11-22T05:13:36.813Z,99050.22
2022-11-22T05:14:38.830Z,99049.98
2022-11-22T05:15:40.731Z,99043.38
2022-11-22T05:16:42.699Z,99046.52
2022-11-22T05:17:44.556Z,99048.30
2022-11-22T05:18:46.666Z,99052.95
2022-11-22T05:19:49.413Z,99049.34
2022-11-22T05:20:52.613Z,99055.26
2022-11-22T05:21:54.544Z,99053.50
2022-11-22T05:22:56.507Z,99054.34
2022-11-22T05:23:58.382Z,99053.42
2022-11-22T05:25:00.279Z,99058.40
2022-11-22T05:26:03.596Z,99063.81
2022-11-22T05:27:05.505Z,99063.70
2022-11-22T05:28:07.573Z,99064.47
2022-11-22T05:29:10.497Z,99065.42
2022-11-22T05:30:13.499Z,99061.88
2022-11-22T05:32:30.286Z,99076.51
2022-11-22T05:33:32.170Z,99072.34
2022-11-22T05:34:34.032Z,99078.19
2022-11-22T05:35:35.943Z,99075.81
2022-11-22T05:36:37.997Z,99072.56
2022-11-22T05:37:39.943Z,99076.04
2022-11-22T05:38:41.922Z,99084.85
2022-11-22T05:39:43.796Z,99071.64
2022-11-22T05:40:45.857Z,99076.25
2022-11-22T05:41:47.704Z,99081.66
2022-11-22T05:42:49.711Z,99079.55
2022-11-22T05:43:54.613Z,99086.50
2022-11-22T05:44:56.609Z,99089.09
2022-11-22T05:46:12.980Z,99089.03
2022-11-22T05:47:14.976Z,99094.30
2022-11-22T05:48:16.829Z,99092.57
2022-11-22T05:49:18.713Z,99094.04
2022-11-22T05:50:20.783Z,99091.41
2022-11-22T05:51:29.262Z,99091.25
2022-11-22T05:52:31.210Z,99094.87
2022-11-22T05:53:34.805Z,99090.48
2022-11-22T05:54:36.723Z,99100.00
2022-11-22T05:55:38.679Z,99098.39
2022-11-22T05:56:40.762Z,99095.09
2022-11-22T05:57:42.629Z,99095.13
2022-11-22T05:58:45.086Z,99092.57
2022-11-22T05:59:46.972Z,99094.04
2022-11-22T06:00:49.138Z,99098.31
2022-11-22T06:01:51.959Z,99098.06
2022-11-22T06:02:59.474Z,99099.63
2022-11-22T06:04:01.375Z,99094.44
2022-11-22T06:05:04.335Z,99087.52
2022-11-22T06:06:07.321Z,99092.86
2022-11-22T06:07:10.448Z,99086.50
2022-11-22T06:08:12.700Z,99094.00
2022-11-22T06:09:14.588Z,99091.10
2022-11-22T06:10:16.968Z,99095.31
2022-11-22T06:11:24.635Z,99106.55
2022-11-22T06:12:26.550Z,99110.75
2022-11-22T06:13:28.407Z,99109.87
2022-11-22T06:14:30.274Z,99102.88
2022-11-22T06:15:32.261Z,99116.03
2022-11-22T06:16:35.405Z,99111.97
2022-11-22T09:58:48.416Z,99262.39
2022-11-22T10:00:03.327Z,99269.41
2022-11-22T10:01:18.227Z,99278.58
2022-11-22T10:02:39.311Z,99273.48
2022-11-22T10:03:43.857Z,99278.83
2022-11-22T10:05:05.315Z,99285.94
2022-11-22T10:06:09.470Z,99281.43
2022-11-22T10:07:15.885Z,99269.97
2022-11-22T10:08:42.836Z,99282.09
2022-11-22T10:10:03.979Z,99285.69
2022-11-22T10:12:26.853Z,99288.31
2022-11-22T10:13:41.350Z,99291.72
2022-11-22T10:15:02.058Z,99293.23
2022-11-22T10:16:23.231Z,99290.75
2022-11-22T10:17:45.874Z,99288.78
2022-11-22T10:18:54.638Z,99293.45
2022-11-22T10:20:14.495Z,99294.16
2022-11-22T10:21:18.507Z,99291.06
2022-11-22T10:22:22.917Z,99295.53
2022-11-22T10:23:26.361Z,99289.09
2022-11-22T10:24:30.431Z,99298.61
2022-11-22T10:25:41.654Z,99295.82
2022-11-22T10:26:44.400Z,99296.80
2022-11-22T10:27:50.007Z,99301.14
2022-11-22T10:28:55.766Z,99293.35
2022-11-22T10:30:07.641Z,99303.80
2022-11-22T10:31:13.329Z,99288.16
2022-11-22T10:32:21.748Z,99297.38
2022-11-22T10:33:44.374Z,99290.20
2022-11-22T10:35:14.593Z,99299.42
2022-11-22T10:36:44.497Z,99294.81
2022-11-22T10:38:19.457Z,99293.84
2022-11-22T10:39:32.916Z,99284.94
2022-11-22T10:40:53.359Z,99301.77
2022-11-22T10:42:16.046Z,99294.45
2022-11-22T10:43:27.595Z,99297.80
2022-11-22T10:44:37.591Z,99294.66
2022-11-22T10:45:55.458Z,99290.56
2022-11-22T10:47:16.743Z,99284.39
2022-11-22T10:48:42.182Z,99283.32
2022-11-22T10:50:00.359Z,99284.03
2022-11-22T10:51:24.440Z,99284.03
2022-11-22T10:52:34.325Z,99288.22
2022-11-22T10:53:42.975Z,99290.17
2022-11-22T10:55:03.286Z,99290.98
2022-11-22T10:56:30.488Z,99288.45
2022-11-22T10:59:03.180Z,99275.13
2022-11-22T11:01:40.784Z,99278.14
2022-11-22T11:03:18.569Z,99282.61
2022-11-22T11:04:23.184Z,99292.76
2022-11-22T11:05:28.877Z,99280.28
2022-11-22T11:07:04.232Z,99287.73
2022-11-22T11:07:42.460Z,99286.58
2022-11-22T11:09:36.145Z,99284.71
2022-11-22T11:10:10.672Z,99281.02
2022-11-22T11:11:01.522Z,99273.47
2022-11-22T11:13:24.531Z,99272.80
2022-11-22T11:14:33.640Z,99280.60
2022-11-22T11:15:39.395Z,99279.76
2022-11-22T11:16:41.514Z,99282.84
2022-11-22T11:17:46.575Z,99284.39
2022-11-22T11:18:55.290Z,99282.95
2022-11-22T11:20:00.940Z,99287.66
2022-11-22T11:21:06.448Z,99287.45
2022-11-22T11:22:14.713Z,99284.22
2022-11-22T11:23:16.901Z,99284.33
2022-11-22T11:24:19.099Z,99284.60
2022-11-22T11:25:36.140Z,99279.13
2022-11-22T11:26:39.698Z,99285.66
2022-11-22T11:27:41.981Z,99288.19
2022-11-22T11:28:47.383Z,99277.44
2022-11-22T11:29:53.178Z,99276.94
2022-11-22T11:31:08.051Z,99282.91
2022-11-22T11:33:32.376Z,99283.50
2022-11-22T11:34:37.080Z,99284.22
2022-11-22T11:35:41.050Z,99291.77
2022-11-22T11:36:43.888Z,99284.64
2022-11-22T11:37:45.795Z,99293.67
2022-11-22T11:38:57.111Z,99294.93
2022-11-22T11:39:59.147Z,99292.86
2022-11-22T11:41:21.396Z,99300.45
2022-11-22T11:42:26.851Z,99297.75
2022-11-22T11:43:28.758Z,99298.59
2022-11-22T11:44:35.766Z,99294.20
2022-11-22T11:45:37.664Z,99305.41
2022-11-22T11:46:43.432Z,99306.39
2022-11-22T11:47:45.575Z,99301.33
2022-11-22T11:48:49.744Z,99309.20
2022-11-22T11:49:51.956Z,99313.35
2022-11-22T11:51:16.155Z,99314.93
2022-11-22T11:52:23.241Z,99306.46
2022-11-22T11:53:25.651Z,99300.94
2022-11-22T11:54:34.280Z,99298.30
2022-11-22T11:55:36.978Z,99298.30
2022-11-22T11:56:55.118Z,99294.55
2022-11-22T11:57:57.576Z,99300.31
2022-11-22T11:59:03.234Z,99303.12
2022-11-22T12:00:08.801Z,99302.14
2022-11-22T12:01:11.085Z,99314.86
2022-11-22T12:02:16.630Z,99309.63
2022-11-22T12:03:20.008Z,99318.23
2022-11-22T12:05:34.941Z,99302.95
2022-11-22T12:06:37.868Z,99308.16
2022-11-22T12:07:46.992Z,99306.32
2022-11-22T12:08:50.874Z,99308.08
2022-11-22T12:09:55.642Z,99304.59
2022-11-22T12:11:04.543Z,99311.66
2022-11-22T12:12:28.479Z,99305.41
2022-11-22T12:15:09.727Z,99316.48
2022-11-22T12:16:07.916Z,99310.92
2022-11-22T12:17:13.592Z,99315.42
2022-11-22T12:18:28.557Z,99316.77
2022-11-22T12:19:45.908Z,99319.34
2022-11-22T12:21:03.870Z,99317.95
2022-11-22T12:23:44.379Z,99312.92
2022-11-22T12:25:30.486Z,99310.69
2022-11-22T12:26:02.119Z,99315.63
2022-11-22T12:27:04.196Z,99313.77
2022-11-22T12:28:12.780Z,99320.83
2022-11-22T12:29:15.735Z,99327.80
2022-11-22T12:30:18.233Z,99331.13
2022-11-22T12:31:53.658Z,99327.83
2022-11-22T12:33:02.141Z,99334.93
2022-11-22T12:34:27.374Z,99338.59
2022-11-22T12:35:33.102Z,99342.91
2022-11-22T12:36:50.793Z,99345.41
2022-11-22T12:37:56.241Z,99351.83
2022-11-22T12:39:01.231Z,99350.41
2022-11-22T12:40:07.245Z,99354.66
2022-11-22T12:41:12.842Z,99351.02
2022-11-22T12:42:23.184Z,99347.97
2022-11-22T12:43:28.855Z,99354.85
2022-11-22T12:44:34.582Z,99362.78
2022-11-22T12:45:45.576Z,99358.13
2022-11-22T12:46:54.410Z,99363.27
2022-11-22T12:48:03.481Z,99360.53
2022-11-22T12:48:23.174Z,99311.98
2022-11-22T12:49:34.717Z,99352.60
2022-11-22T12:50:52.770Z,99351.69
2022-11-22T12:51:59.869Z,99346.48
2022-11-22T12:53:08.594Z,99349.86
2022-11-22T12:54:17.143Z,99345.41
2022-11-22T12:55:26.618Z,99345.41
2022-11-22T12:56:33.891Z,99352.30
2022-11-22T12:58:02.936Z,99354.75
2022-11-22T12:59:29.842Z,99360.41
2022-11-22T13:00:37.301Z,99356.65
2022-11-22T13:01:46.099Z,99360.34
2022-11-22T13:02:59.060Z,99357.39
2022-11-22T13:04:26.542Z,99357.46
2022-11-22T13:05:32.253Z,99356.48
2022-11-22T13:06:53.394Z,99360.47
2022-11-22T13:08:02.305Z,99368.95
2022-11-22T13:09:07.606Z,99370.45
2022-11-22T13:10:26.092Z,99375.87
2022-11-22T13:11:40.867Z,99378.19
2022-11-22T13:12:45.322Z,99373.17
2022-11-22T13:13:53.698Z,99380.81
2022-11-22T13:14:58.665Z,99385.01
2022-11-22T13:16:03.711Z,99381.72
2022-11-22T13:17:08.049Z,99385.72
2022-11-22T13:18:12.076Z,99386.73
2022-11-22T13:19:16.305Z,99383.97
2022-11-22T13:20:39.586Z,99383.87
2022-11-22T13:22:02.434Z,99387.41
2022-11-22T13:23:22.776Z,99391.46
2022-11-22T13:24:34.771Z,99391.49
2022-11-22T13:25:40.470Z,99389.83
2022-11-22T13:27:01.614Z,99390.49
2022-11-22T13:28:08.464Z,99385.36
2022-11-22T13:29:23.435Z,99380.03
2022-11-22T13:30:27.963Z,99378.56
2022-11-22T13:31:29.851Z,99381.66
2022-11-22T13:33:56.452Z,99373.53
2022-11-22T13:35:14.636Z,99378.05
2022-11-22T13:36:32.656Z,99377.76
2022-11-22T13:37:38.288Z,99371.72
2022-11-22T13:38:44.220Z,99372.49
2022-11-22T13:39:48.768Z,99372.42
2022-11-22T13:40:51.312Z,99375.13
2022-11-22T13:42:03.122Z,99373.47
2022-11-22T13:43:21.561Z,99377.08
2022-11-22T13:44:34.181Z,99374.77
2022-11-22T13:45:53.602Z,99387.41
2022-11-22T13:47:01.223Z,99380.56
2022-11-22T13:48:03.522Z,99385.69
2022-11-22T13:49:39.211Z,99383.97
2022-11-22T13:50:43.811Z,99383.77
2022-11-22T13:51:55.677Z,99381.14
2022-11-22T13:52:57.772Z,99388.03
2022-11-22T13:54:38.525Z,99388.03
2022-11-22T13:55:42.592Z,99385.50
2022-11-22T13:56:47.866Z,99390.77
2022-11-22T18:11:19.270Z,99459.41
2022-11-22T18:12:21.279Z,99464.80
2022-11-22T18:13:23.144Z,99462.20
2022-11-22T18:14:25.014Z,99457.00
2022-11-22T18:15:26.880Z,99462.25
2022-11-22T18:16:29.061Z,99463.95
2022-11-22T18:17:32.535Z,99470.05
2022-11-22T18:19:40.316Z,99472.09
2022-11-22T18:20:47.724Z,99468.46
2022-11-22T18:21:49.622Z,99463.18
2022-11-22T18:22:51.474Z,99467.66
2022-11-22T18:23:53.347Z,99472.99
2022-11-22T18:24:55.205Z,99471.06
2022-11-22T18:27:06.974Z,99470.02
2022-11-22T18:28:09.698Z,99466.50
2022-11-22T18:29:41.788Z,99477.87
2022-11-22T18:30:17.965Z,99473.41
2022-11-22T18:31:19.833Z,99466.50
2022-11-22T18:32:21.795Z,99464.74
2022-11-22T18:33:23.641Z,99470.81
2022-11-22T18:34:25.924Z,99464.63
2022-11-22T18:35:28.193Z,99465.51
2022-11-22T18:36:54.725Z,99461.19
2022-11-22T18:37:34.004Z,99465.51
2022-11-22T18:38:35.881Z,99461.98
2022-11-22T18:39:39.044Z,99466.24
2022-11-22T18:40:46.112Z,99458.78
2022-11-22T18:41:50.298Z,99462.20
2022-11-22T18:42:57.082Z,99462.91
2022-11-22T18:43:59.120Z,99464.93
2022-11-22T18:45:01.141Z,99463.88
2022-11-22T18:46:05.646Z,99458.59
2022-11-22T18:47:10.347Z,99458.53
2022-11-22T18:48:13.043Z,99459.47
2022-11-22T18:49:15.460Z,99456.78
2022-11-22T18:50:20.665Z,99456.78
2022-11-22T18:51:22.539Z,99461.92
2022-11-22T18:52:24.417Z,99464.41
2022-11-22T18:53:29.056Z,99461.92
2022-11-22T18:54:31.436Z,99464.43
2022-11-22T18:55:33.825Z,99470.53
2022-11-22T18:56:36.176Z,99466.27
2022-11-22T18:57:38.209Z,99465.39
2022-11-22T18:58:40.588Z,99465.39
2022-11-22T18:59:42.549Z,99467.91
2022-11-22T19:00:45.372Z,99467.00
2022-11-22T19:01:47.605Z,99460.96
2022-11-22T19:02:49.471Z,99470.42
2022-11-22T19:03:51.570Z,99466.97
2022-11-22T19:04:53.716Z,99466.92
2022-11-22T19:05:55.911Z,99466.80
2022-11-22T19:06:58.096Z,99464.38
2022-11-22T19:07:59.955Z,99467.23
2022-11-22T19:09:01.999Z,99468.75
2022-11-22T19:10:08.531Z,99462.03
2022-11-22T19:11:11.028Z,99463.67
2022-11-22T19:12:13.492Z,99455.00
2022-11-22T19:13:15.372Z,99455.00
2022-11-22T19:14:17.218Z,99463.70
2022-11-22T19:15:19.106Z,99466.16
2022-11-22T19:16:22.305Z,99465.22
2022-11-22T19:17:25.258Z,99463.98
2022-11-22T19:18:29.187Z,99466.35
2022-11-22T19:19:31.131Z,99466.19
2022-11-22T19:20:53.963Z,99468.78
2022-11-22T19:21:39.480Z,99461.27
2022-11-22T19:22:41.379Z,99468.87
2022-11-22T19:23:46.156Z,99464.41
2022-11-22T19:24:48.073Z,99471.47
2022-11-22T19:25:49.957Z,99464.63
2022-11-22T19:26:52.325Z,99472.23
2022-11-22T19:27:54.238Z,99482.71
2022-11-22T19:28:58.718Z,99476.55
2022-11-22T19:30:00.891Z,99481.83
2022-11-22T19:31:05.229Z,99485.22
2022-11-22T19:32:07.421Z,99482.63
2022-11-22T19:33:09.396Z,99487.16
2022-11-22T19:34:12.072Z,99485.36
2022-11-22T19:35:14.090Z,99484.43
2022-11-22T19:36:19.208Z,99482.79
2022-11-22T19:37:22.109Z,99495.95
2022-11-22T19:38:26.237Z,99482.87
2022-11-22T19:39:28.571Z,99428.10
2022-11-22T19:40:31.321Z,99482.77
2022-11-22T19:41:36.171Z,99489.95
2022-11-22T19:42:38.169Z,99493.23
2022-11-22T19:43:40.050Z,99488.80
2022-11-22T19:44:42.544Z,99489.77
2022-11-22T19:45:45.525Z,99492.50
2022-11-22T19:46:47.510Z,99485.44
2022-11-22T19:47:49.471Z,99486.23
2022-11-22T19:50:03.756Z,99492.20
2022-11-22T19:51:07.457Z,99494.06
2022-11-22T19:52:09.352Z,99501.80
2022-11-22T19:53:11.738Z,99497.39
2022-11-22T19:54:13.636Z,99499.99
2022-11-22T19:55:15.943Z,99501.66
2022-11-22T19:56:19.219Z,99499.83
2022-11-22T19:57:21.440Z,99502.42
2022-11-22T19:58:23.307Z,99494.73
2022-11-22T19:59:25.210Z,99492.22
2022-11-22T20:00:28.655Z,99506.17
2022-11-22T20:01:33.821Z,99492.25
2022-11-22T20:02:35.899Z,99490.59
2022-11-22T20:03:39.781Z,99503.71
2022-11-22T20:04:41.712Z,99499.28
2022-11-22T20:05:43.619Z,99500.05
2022-11-22T20:06:49.929Z,99512.16
2022-11-22T20:07:49.935Z,99506.97
2022-11-22T20:08:52.623Z,99518.18
2022-11-22T20:09:54.494Z,99518.16
2022-11-22T20:11:09.265Z,99524.28
2022-11-22T20:12:11.151Z,99529.72
2022-11-22T20:13:13.052Z,99527.06
2022-11-22T20:14:14.923Z,99538.25
2022-11-22T20:15:17.562Z,99543.47
2022-11-22T20:16:22.383Z,99543.40
2022-11-22T20:17:24.316Z,99542.60
2022-11-22T20:18:26.196Z,99544.22
2022-11-22T20:19:33.840Z,99538.97
2022-11-22T20:20:31.940Z,99543.23
2022-11-22T20:21:35.032Z,99538.94
2022-11-22T20:22:37.132Z,99541.62
2022-11-22T20:23:38.986Z,99546.13
2022-11-22T20:24:40.826Z,99541.28
2022-11-22T20:25:42.803Z,99552.55
2022-11-22T20:26:45.284Z,99547.10
2022-11-22T20:27:47.164Z,99552.25
2022-11-22T20:28:54.984Z,99552.12
2022-11-22T20:29:56.907Z,99559.04
2022-11-22T20:31:10.862Z,99550.09
2022-11-22T20:32:12.885Z,99557.78
2022-11-22T20:33:14.737Z,99559.56
2022-11-22T20:34:17.476Z,99552.45
2022-11-22T20:35:19.450Z,99546.30
2022-11-22T20:37:36.785Z,99561.94
2022-11-22T20:38:40.788Z,99562.41
2022-11-22T20:39:42.687Z,99562.20
2022-11-22T20:40:44.776Z,99567.23
2022-11-22T20:41:47.349Z,99566.25
2022-11-22T20:42:49.220Z,99566.06
2022-11-22T20:43:51.465Z,99568.05
2022-11-22T20:44:53.333Z,99569.67
2022-11-22T20:46:10.365Z,99572.23
2022-11-22T20:47:12.388Z,99566.11
2022-11-22T20:48:14.255Z,99575.63
2022-11-22T20:49:16.241Z,99563.39
2022-11-22T20:50:18.210Z,99567.84
2022-11-22T20:51:27.565Z,99572.25
2022-11-22T20:52:29.514Z,99574.73
2022-11-22T20:53:32.388Z,99570.44
2022-11-22T20:54:34.314Z,99578.33
2022-11-22T20:55:38.842Z,99579.95
2022-11-22T20:56:40.876Z,99572.90